Urmia Airport

Airport
ICAO code: 
OITR
IATA Code: 
OMH
Summary
ICAO Region: 
MID
Territory: 
Location: 
Asgar Abad, West Azerbijan Province
Serving: 
Urmia
Elevation: 
4343 ft
Coordinates: 
Aerial View: 
37° 39' 44.641" N, 45° 3' 33.147" E
Metar
Observation
OITR 261900Z 28008KT CAVOK 17/09 Q1009
Station
Orumieh
Date/Time
2022-06-26 19:00:00
Wind direction
280°
Wind speed
08 kts
Lowest cloud amount
clouds and visibility OK
Temperature
17°C
Dew point
9°C
Humidity
59%
QNH
1009 hPa
Weather condition
n/a

Airport serving the central district of Urmia County, Iran. The airport is located some 13km north of the city of Urmia.

Climatology

Cold semi-arid climate (Köppen climate classification BSk).

Runways

Designator Length Width Surface Rops
3/21 3249 45 ASP No/No
Airport map: 
Aerial View: 

SKYbrary Partners:

Safety knowledge contributed by: